sensor_id;sensor_type;location;lat;lon;timestamp;temperature;humidity
40952;DHT22;26682;51.660;19.338;2024-01-27T00:00:11;4.40;1.00
40952;DHT22;26682;51.660;19.338;2024-01-27T00:03:13;4.40;1.00
40952;DHT22;26682;51.660;19.338;2024-01-27T00:05:56;4.50;99.90
40952;DHT22;26682;51.660;19.338;2024-01-27T00:08:39;4.50;99.90
40952;DHT22;26682;51.660;19.338;2024-01-27T00:11:22;4.50;99.90
40952;DHT22;26682;51.660;19.338;2024-01-27T00:14:09;4.40;1.00
40952;DHT22;26682;51.660;19.338;2024-01-27T00:16:51;4.40;1.00
40952;DHT22;26682;51.660;19.338;2024-01-27T00:19:34;4.40;1.00
40952;DHT22;26682;51.660;19.338;2024-01-27T00:22:21;4.30;1.00
40952;DHT22;26682;51.660;19.338;2024-01-27T00:25:03;4.40;1.00
40952;DHT22;26682;51.660;19.338;2024-01-27T00:27:46;4.30;1.00
40952;DHT22;26682;51.660;19.338;2024-01-27T00:30:28;4.30;1.00
40952;DHT22;26682;51.660;19.338;2024-01-27T00:33:11;4.30;1.00
40952;DHT22;26682;51.660;19.338;2024-01-27T00:35:54;4.30;1.00
40952;DHT22;26682;51.660;19.338;2024-01-27T00:38:36;4.30;99.90
40952;DHT22;26682;51.660;19.338;2024-01-27T00:41:19;4.30;99.90
40952;DHT22;26682;51.660;19.338;2024-01-27T00:44:02;4.30;99.90
40952;DHT22;26682;51.660;19.338;2024-01-27T00:46:44;4.30;99.90
40952;DHT22;26682;51.660;19.338;2024-01-27T00:49:26;4.20;99.90
40952;DHT22;26682;51.660;19.338;2024-01-27T00:52:09;4.20;99.90
40952;DHT22;26682;51.660;19.338;2024-01-27T00:54:51;4.20;99.90
40952;DHT22;26682;51.660;19.338;2024-01-27T00:57:36;4.20;99.90
40952;DHT22;26682;51.660;19.338;2024-01-27T01:00:20;4.20;1.00
40952;DHT22;26682;51.660;19.338;2024-01-27T01:03:03;4.20;99.90
40952;DHT22;26682;51.660;19.338;2024-01-27T01:05:45;4.20;99.90
40952;DHT22;26682;51.660;19.338;2024-01-27T01:08:28;4.20;95.10
40952;DHT22;26682;51.660;19.338;2024-01-27T01:11:12;4.20;24.20
40952;DHT22;26682;51.660;19.338;2024-01-27T01:13:54;4.20;1.00
40952;DHT22;26682;51.660;19.338;2024-01-27T01:16:37;4.20;1.00
40952;DHT22;26682;51.660;19.338;2024-01-27T01:19:19;4.20;1.00
40952;DHT22;26682;51.660;19.338;2024-01-27T01:22:02;4.10;1.00
40952;DHT22;26682;51.660;19.338;2024-01-27T01:24:44;4.10;1.00
40952;DHT22;26682;51.660;19.338;2024-01-27T01:27:27;4.10;1.00
40952;DHT22;26682;51.660;19.338;2024-01-27T01:30:09;4.10;1.00
40952;DHT22;26682;51.660;19.338;2024-01-27T01:32:52;4.10;1.00
40952;DHT22;26682;51.660;19.338;2024-01-27T01:35:35;4.10;1.00
40952;DHT22;26682;51.660;19.338;2024-01-27T01:38:17;4.10;47.60
40952;DHT22;26682;51.660;19.338;2024-01-27T01:41:00;4.10;99.90
40952;DHT22;26682;51.660;19.338;2024-01-27T01:43:42;4.10;99.90
40952;DHT22;26682;51.660;19.338;2024-01-27T01:46:25;4.10;53.80
40952;DHT22;26682;51.660;19.338;2024-01-27T01:49:07;4.10;91.00
40952;DHT22;26682;51.660;19.338;2024-01-27T01:51:50;4.10;1.00
40952;DHT22;26682;51.660;19.338;2024-01-27T01:54:32;4.10;99.20
40952;DHT22;26682;51.660;19.338;2024-01-27T01:57:15;4.10;99.90
40952;DHT22;26682;51.660;19.338;2024-01-27T01:59:58;4.00;1.00
40952;DHT22;26682;51.660;19.338;2024-01-27T02:02:43;3.90;47.50
40952;DHT22;26682;51.660;19.338;2024-01-27T02:05:27;4.00;25.10
40952;DHT22;26682;51.660;19.338;2024-01-27T02:08:09;4.00;1.00
40952;DHT22;26682;51.660;19.338;2024-01-27T02:10:52;4.00;1.00
40952;DHT22;26682;51.660;19.338;2024-01-27T02:13:34;4.00;1.00
40952;DHT22;26682;51.660;19.338;2024-01-27T02:16:17;4.00;1.00
40952;DHT22;26682;51.660;19.338;2024-01-27T02:18:59;4.00;1.00
40952;DHT22;26682;51.660;19.338;2024-01-27T02:21:42;3.90;1.00
40952;DHT22;26682;51.660;19.338;2024-01-27T02:24:25;3.90;1.00
40952;DHT22;26682;51.660;19.338;2024-01-27T02:27:08;3.90;99.90
40952;DHT22;26682;51.660;19.338;2024-01-27T02:29:50;3.90;99.90
40952;DHT22;26682;51.660;19.338;2024-01-27T02:32:33;3.80;99.90
40952;DHT22;26682;51.660;19.338;2024-01-27T02:35:16;3.90;1.00
40952;DHT22;26682;51.660;19.338;2024-01-27T02:37:58;3.90;1.00
40952;DHT22;26682;51.660;19.338;2024-01-27T02:40:40;3.90;1.00
40952;DHT22;26682;51.660;19.338;2024-01-27T02:43:23;3.90;99.90
40952;DHT22;26682;51.660;19.338;2024-01-27T02:46:11;3.90;99.90
40952;DHT22;26682;51.660;19.338;2024-01-27T02:48:54;3.90;99.90
40952;DHT22;26682;51.660;19.338;2024-01-27T02:51:37;3.90;99.90
40952;DHT22;26682;51.660;19.338;2024-01-27T02:54:19;3.90;99.90
40952;DHT22;26682;51.660;19.338;2024-01-27T02:57:02;3.90;99.90
40952;DHT22;26682;51.660;19.338;2024-01-27T02:59:45;3.90;99.90
40952;DHT22;26682;51.660;19.338;2024-01-27T03:02:28;3.90;99.90
40952;DHT22;26682;51.660;19.338;2024-01-27T03:05:11;3.90;99.90
40952;DHT22;26682;51.660;19.338;2024-01-27T03:07:56;3.90;79.00
40952;DHT22;26682;51.660;19.338;2024-01-27T03:10:39;3.90;1.00
40952;DHT22;26682;51.660;19.338;2024-01-27T03:13:21;3.90;1.00
40952;DHT22;26682;51.660;19.338;2024-01-27T03:16:08;3.90;1.00
40952;DHT22;26682;51.660;19.338;2024-01-27T03:18:51;3.90;1.00
40952;DHT22;26682;51.660;19.338;2024-01-27T03:21:33;3.90;1.00
40952;DHT22;26682;51.660;19.338;2024-01-27T03:24:16;3.90;99.90
40952;DHT22;26682;51.660;19.338;2024-01-27T03:26:59;3.90;99.90
40952;DHT22;26682;51.660;19.338;2024-01-27T03:29:41;3.90;99.90
40952;DHT22;26682;51.660;19.338;2024-01-27T03:32:23;3.90;99.90
40952;DHT22;26682;51.660;19.338;2024-01-27T03:35:06;3.80;99.90
40952;DHT22;26682;51.660;19.338;2024-01-27T03:37:49;3.80;99.90
40952;DHT22;26682;51.660;19.338;2024-01-27T03:40:31;3.80;99.90
40952;DHT22;26682;51.660;19.338;2024-01-27T03:43:14;3.80;99.90
40952;DHT22;26682;51.660;19.338;2024-01-27T03:46:00;3.80;99.90
40952;DHT22;26682;51.660;19.338;2024-01-27T03:48:42;3.80;99.90
40952;DHT22;26682;51.660;19.338;2024-01-27T03:51:25;3.80;99.90
40952;DHT22;26682;51.660;19.338;2024-01-27T03:54:08;3.80;99.90
40952;DHT22;26682;51.660;19.338;2024-01-27T03:56:51;3.80;99.90
40952;DHT22;26682;51.660;19.338;2024-01-27T03:59:33;3.80;99.90
40952;DHT22;26682;51.660;19.338;2024-01-27T04:02:15;3.80;99.90
40952;DHT22;26682;51.660;19.338;2024-01-27T04:04:58;3.80;99.90
40952;DHT22;26682;51.660;19.338;2024-01-27T04:07:40;3.80;99.90
40952;DHT22;26682;51.660;19.338;2024-01-27T04:10:23;3.80;99.90
40952;DHT22;26682;51.660;19.338;2024-01-27T04:13:06;3.80;99.90
40952;DHT22;26682;51.660;19.338;2024-01-27T04:15:48;3.80;99.90
40952;DHT22;26682;51.660;19.338;2024-01-27T04:18:33;3.80;99.90
40952;DHT22;26682;51.660;19.338;2024-01-27T04:21:16;3.80;99.90
40952;DHT22;26682;51.660;19.338;2024-01-27T04:23:58;3.80;99.90
40952;DHT22;26682;51.660;19.338;2024-01-27T04:26:41;3.80;99.90
40952;DHT22;26682;51.660;19.338;2024-01-27T04:29:23;3.70;99.90
40952;DHT22;26682;51.660;19.338;2024-01-27T04:32:06;3.70;99.90
40952;DHT22;26682;51.660;19.338;2024-01-27T04:34:48;3.70;99.90
40952;DHT22;26682;51.660;19.338;2024-01-27T04:37:31;3.70;99.90
40952;DHT22;26682;51.660;19.338;2024-01-27T04:40:13;3.70;99.90
40952;DHT22;26682;51.660;19.338;2024-01-27T04:42:56;3.70;99.90
40952;DHT22;26682;51.660;19.338;2024-01-27T04:45:38;3.70;99.90
40952;DHT22;26682;51.660;19.338;2024-01-27T04:48:21;3.70;99.90
40952;DHT22;26682;51.660;19.338;2024-01-27T04:51:03;3.70;99.90
40952;DHT22;26682;51.660;19.338;2024-01-27T04:53:46;3.70;99.90
40952;DHT22;26682;51.660;19.338;2024-01-27T04:56:29;3.70;99.90
40952;DHT22;26682;51.660;19.338;2024-01-27T04:59:11;3.70;99.90
40952;DHT22;26682;51.660;19.338;2024-01-27T05:01:53;3.70;99.90
40952;DHT22;26682;51.660;19.338;2024-01-27T05:04:37;3.70;99.90
40952;DHT22;26682;51.660;19.338;2024-01-27T05:07:19;3.70;99.90
40952;DHT22;26682;51.660;19.338;2024-01-27T05:10:02;3.80;99.90
40952;DHT22;26682;51.660;19.338;2024-01-27T05:12:45;3.70;99.90
40952;DHT22;26682;51.660;19.338;2024-01-27T05:15:28;3.70;99.90
40952;DHT22;26682;51.660;19.338;2024-01-27T05:18:10;3.70;99.90
40952;DHT22;26682;51.660;19.338;2024-01-27T05:20:53;3.70;99.90
40952;DHT22;26682;51.660;19.338;2024-01-27T05:23:36;3.70;99.90
40952;DHT22;26682;51.660;19.338;2024-01-27T05:26:18;3.70;99.90
40952;DHT22;26682;51.660;19.338;2024-01-27T05:29:01;3.70;99.90
40952;DHT22;26682;51.660;19.338;2024-01-27T05:31:43;3.70;99.90
40952;DHT22;26682;51.660;19.338;2024-01-27T05:34:26;3.70;92.50
40952;DHT22;26682;51.660;19.338;2024-01-27T05:37:08;3.70;69.30
40952;DHT22;26682;51.660;19.338;2024-01-27T05:39:51;3.70;65.00
40952;DHT22;26682;51.660;19.338;2024-01-27T05:42:33;3.70;98.30
40952;DHT22;26682;51.660;19.338;2024-01-27T05:45:16;3.70;92.90
40952;DHT22;26682;51.660;19.338;2024-01-27T05:47:59;3.70;81.00
40952;DHT22;26682;51.660;19.338;2024-01-27T05:50:42;3.70;46.60
40952;DHT22;26682;51.660;19.338;2024-01-27T05:53:25;3.70;53.00
40952;DHT22;26682;51.660;19.338;2024-01-27T05:56:08;3.70;97.80
40952;DHT22;26682;51.660;19.338;2024-01-27T05:58:50;3.60;99.90
40952;DHT22;26682;51.660;19.338;2024-01-27T06:01:33;3.60;99.90
40952;DHT22;26682;51.660;19.338;2024-01-27T06:04:15;3.50;1.00
40952;DHT22;26682;51.660;19.338;2024-01-27T06:06:58;3.40;1.00
40952;DHT22;26682;51.660;19.338;2024-01-27T06:09:40;3.30;99.90
40952;DHT22;26682;51.660;19.338;2024-01-27T06:12:24;3.20;94.40
40952;DHT22;26682;51.660;19.338;2024-01-27T06:15:08;3.10;1.00
40952;DHT22;26682;51.660;19.338;2024-01-27T06:17:52;3.00;1.00
40952;DHT22;26682;51.660;19.338;2024-01-27T06:20:35;3.00;1.00
40952;DHT22;26682;51.660;19.338;2024-01-27T06:23:17;3.10;1.00
40952;DHT22;26682;51.660;19.338;2024-01-27T06:26:07;3.10;99.90
40952;DHT22;26682;51.660;19.338;2024-01-27T06:28:49;3.10;99.90
40952;DHT22;26682;51.660;19.338;2024-01-27T06:31:32;3.20;1.00
40952;DHT22;26682;51.660;19.338;2024-01-27T06:34:14;3.20;1.00
40952;DHT22;26682;51.660;19.338;2024-01-27T06:36:57;3.30;99.90
40952;DHT22;26682;51.660;19.338;2024-01-27T06:39:39;3.30;99.90
40952;DHT22;26682;51.660;19.338;2024-01-27T06:42:22;3.30;72.90
40952;DHT22;26682;51.660;19.338;2024-01-27T06:45:05;3.40;1.00
40952;DHT22;26682;51.660;19.338;2024-01-27T06:47:50;3.40;1.00
40952;DHT22;26682;51.660;19.338;2024-01-27T06:50:33;3.40;1.00
40952;DHT22;26682;51.660;19.338;2024-01-27T06:53:16;3.40;1.00
40952;DHT22;26682;51.660;19.338;2024-01-27T06:55:58;3.40;1.00
40952;DHT22;26682;51.660;19.338;2024-01-27T06:58:41;3.40;99.90
40952;DHT22;26682;51.660;19.338;2024-01-27T07:01:23;3.40;99.90
40952;DHT22;26682;51.660;19.338;2024-01-27T07:04:06;3.30;1.00
40952;DHT22;26682;51.660;19.338;2024-01-27T07:06:48;3.30;1.00
40952;DHT22;26682;51.660;19.338;2024-01-27T07:09:31;3.30;1.00
40952;DHT22;26682;51.660;19.338;2024-01-27T07:12:13;3.30;21.60
40952;DHT22;26682;51.660;19.338;2024-01-27T07:14:56;3.20;99.90
40952;DHT22;26682;51.660;19.338;2024-01-27T07:17:39;3.20;1.00
40952;DHT22;26682;51.660;19.338;2024-01-27T07:20:21;3.20;4.20
40952;DHT22;26682;51.660;19.338;2024-01-27T07:23:06;3.20;21.10
40952;DHT22;26682;51.660;19.338;2024-01-27T07:25:49;3.20;20.70
40952;DHT22;26682;51.660;19.338;2024-01-27T07:28:31;3.10;96.20
40952;DHT22;26682;51.660;19.338;2024-01-27T07:31:14;3.10;99.90
40952;DHT22;26682;51.660;19.338;2024-01-27T07:33:57;3.10;99.90
40952;DHT22;26682;51.660;19.338;2024-01-27T07:36:39;3.10;99.90
40952;DHT22;26682;51.660;19.338;2024-01-27T07:39:21;3.10;99.90
40952;DHT22;26682;51.660;19.338;2024-01-27T07:42:05;3.10;99.90
40952;DHT22;26682;51.660;19.338;2024-01-27T07:44:47;3.10;99.90
40952;DHT22;26682;51.660;19.338;2024-01-27T07:47:31;3.10;1.00
40952;DHT22;26682;51.660;19.338;2024-01-27T07:50:14;3.10;32.20
40952;DHT22;26682;51.660;19.338;2024-01-27T07:52:57;3.00;99.90
40952;DHT22;26682;51.660;19.338;2024-01-27T07:55:40;3.00;1.00
40952;DHT22;26682;51.660;19.338;2024-01-27T07:58:24;2.90;99.90
40952;DHT22;26682;51.660;19.338;2024-01-27T08:01:06;2.80;1.00
40952;DHT22;26682;51.660;19.338;2024-01-27T08:03:49;2.70;67.80
40952;DHT22;26682;51.660;19.338;2024-01-27T08:06:32;2.60;99.90
40952;DHT22;26682;51.660;19.338;2024-01-27T08:09:15;2.50;99.90
40952;DHT22;26682;51.660;19.338;2024-01-27T08:11:58;2.50;1.00
40952;DHT22;26682;51.660;19.338;2024-01-27T08:14:41;2.40;1.00
40952;DHT22;26682;51.660;19.338;2024-01-27T08:17:24;2.50;1.00
40952;DHT22;26682;51.660;19.338;2024-01-27T08:20:08;2.50;8.50
40952;DHT22;26682;51.660;19.338;2024-01-27T08:22:50;2.40;71.10
40952;DHT22;26682;51.660;19.338;2024-01-27T08:25:33;2.40;99.90
40952;DHT22;26682;51.660;19.338;2024-01-27T08:28:16;2.40;99.90
40952;DHT22;26682;51.660;19.338;2024-01-27T08:30:58;2.40;99.90
40952;DHT22;26682;51.660;19.338;2024-01-27T08:33:42;2.40;99.90
40952;DHT22;26682;51.660;19.338;2024-01-27T08:36:25;2.40;99.90
40952;DHT22;26682;51.660;19.338;2024-01-27T08:39:07;2.40;99.90
40952;DHT22;26682;51.660;19.338;2024-01-27T08:41:50;2.30;99.90
40952;DHT22;26682;51.660;19.338;2024-01-27T08:44:33;2.30;99.90
40952;DHT22;26682;51.660;19.338;2024-01-27T08:47:16;2.30;99.90
40952;DHT22;26682;51.660;19.338;2024-01-27T08:50:01;2.30;99.90
40952;DHT22;26682;51.660;19.338;2024-01-27T08:52:44;2.30;99.90
40952;DHT22;26682;51.660;19.338;2024-01-27T08:55:28;2.20;99.90
40952;DHT22;26682;51.660;19.338;2024-01-27T08:58:11;2.20;99.90
40952;DHT22;26682;51.660;19.338;2024-01-27T09:00:53;2.20;99.90
40952;DHT22;26682;51.660;19.338;2024-01-27T09:03:36;2.20;99.90
40952;DHT22;26682;51.660;19.338;2024-01-27T09:06:19;2.20;99.90
40952;DHT22;26682;51.660;19.338;2024-01-27T09:09:02;2.20;99.90
40952;DHT22;26682;51.660;19.338;2024-01-27T09:11:45;2.20;99.90
40952;DHT22;26682;51.660;19.338;2024-01-27T09:14:28;2.20;99.90
40952;DHT22;26682;51.660;19.338;2024-01-27T09:17:11;2.20;99.90
40952;DHT22;26682;51.660;19.338;2024-01-27T09:19:55;2.20;99.90
40952;DHT22;26682;51.660;19.338;2024-01-27T09:22:37;2.10;99.90
40952;DHT22;26682;51.660;19.338;2024-01-27T09:25:20;2.10;99.90
40952;DHT22;26682;51.660;19.338;2024-01-27T09:28:02;2.10;99.90
40952;DHT22;26682;51.660;19.338;2024-01-27T09:30:45;2.10;99.90
40952;DHT22;26682;51.660;19.338;2024-01-27T09:33:28;2.00;99.90
40952;DHT22;26682;51.660;19.338;2024-01-27T09:36:13;2.00;99.90
40952;DHT22;26682;51.660;19.338;2024-01-27T09:38:56;2.00;99.90
40952;DHT22;26682;51.660;19.338;2024-01-27T09:41:39;1.90;99.90
40952;DHT22;26682;51.660;19.338;2024-01-27T09:44:24;1.90;99.90
40952;DHT22;26682;51.660;19.338;2024-01-27T09:47:08;1.90;99.90
40952;DHT22;26682;51.660;19.338;2024-01-27T09:49:50;1.90;99.90
40952;DHT22;26682;51.660;19.338;2024-01-27T09:52:33;2.00;99.90
40952;DHT22;26682;51.660;19.338;2024-01-27T09:55:16;2.00;99.90
40952;DHT22;26682;51.660;19.338;2024-01-27T09:57:59;2.10;99.90
40952;DHT22;26682;51.660;19.338;2024-01-27T10:00:42;2.10;99.90
40952;DHT22;26682;51.660;19.338;2024-01-27T10:03:28;2.10;99.90
40952;DHT22;26682;51.660;19.338;2024-01-27T10:06:11;2.20;99.90
40952;DHT22;26682;51.660;19.338;2024-01-27T10:08:55;2.20;99.90
40952;DHT22;26682;51.660;19.338;2024-01-27T10:11:39;2.40;99.90
40952;DHT22;26682;51.660;19.338;2024-01-27T10:14:24;2.40;99.90
40952;DHT22;26682;51.660;19.338;2024-01-27T10:17:11;2.40;99.90
40952;DHT22;26682;51.660;19.338;2024-01-27T10:20:04;2.40;99.90
40952;DHT22;26682;51.660;19.338;2024-01-27T10:22:48;2.40;99.90
40952;DHT22;26682;51.660;19.338;2024-01-27T10:25:30;2.40;99.90
40952;DHT22;26682;51.660;19.338;2024-01-27T10:28:19;2.40;99.90
40952;DHT22;26682;51.660;19.338;2024-01-27T10:31:12;2.40;99.90
40952;DHT22;26682;51.660;19.338;2024-01-27T10:33:56;2.40;99.90
40952;DHT22;26682;51.660;19.338;2024-01-27T10:36:43;2.40;99.90
40952;DHT22;26682;51.660;19.338;2024-01-27T10:39:26;2.40;99.90
40952;DHT22;26682;51.660;19.338;2024-01-27T10:42:10;2.40;99.90
40952;DHT22;26682;51.660;19.338;2024-01-27T10:44:53;2.40;99.90
40952;DHT22;26682;51.660;19.338;2024-01-27T10:47:38;2.40;99.90
40952;DHT22;26682;51.660;19.338;2024-01-27T10:50:21;2.40;99.90
40952;DHT22;26682;51.660;19.338;2024-01-27T10:53:17;2.40;99.90
40952;DHT22;26682;51.660;19.338;2024-01-27T10:56:04;2.50;99.90
40952;DHT22;26682;51.660;19.338;2024-01-27T10:58:52;2.50;99.90
40952;DHT22;26682;51.660;19.338;2024-01-27T11:01:38;2.60;99.90
40952;DHT22;26682;51.660;19.338;2024-01-27T11:04:22;2.60;99.90
40952;DHT22;26682;51.660;19.338;2024-01-27T11:07:06;2.60;99.90
40952;DHT22;26682;51.660;19.338;2024-01-27T11:09:50;2.70;99.90
40952;DHT22;26682;51.660;19.338;2024-01-27T11:12:34;2.70;99.90
40952;DHT22;26682;51.660;19.338;2024-01-27T11:15:17;2.70;99.90
40952;DHT22;26682;51.660;19.338;2024-01-27T11:17:59;2.70;99.90
40952;DHT22;26682;51.660;19.338;2024-01-27T11:20:44;2.60;99.90
40952;DHT22;26682;51.660;19.338;2024-01-27T11:23:34;2.70;99.90
40952;DHT22;26682;51.660;19.338;2024-01-27T11:26:21;2.70;99.90
40952;DHT22;26682;51.660;19.338;2024-01-27T11:29:07;2.70;99.90
40952;DHT22;26682;51.660;19.338;2024-01-27T11:31:52;2.70;99.90
40952;DHT22;26682;51.660;19.338;2024-01-27T11:34:44;2.70;99.90
40952;DHT22;26682;51.660;19.338;2024-01-27T11:37:30;2.80;99.90
40952;DHT22;26682;51.660;19.338;2024-01-27T11:40:13;2.80;99.90
40952;DHT22;26682;51.660;19.338;2024-01-27T11:43:03;2.80;99.90
40952;DHT22;26682;51.660;19.338;2024-01-27T11:46:15;2.80;99.90
40952;DHT22;26682;51.660;19.338;2024-01-27T11:49:03;2.80;99.90
40952;DHT22;26682;51.660;19.338;2024-01-27T11:51:47;2.80;99.90
40952;DHT22;26682;51.660;19.338;2024-01-27T11:54:30;2.90;99.90
40952;DHT22;26682;51.660;19.338;2024-01-27T11:57:13;2.90;99.90
40952;DHT22;26682;51.660;19.338;2024-01-27T11:59:56;2.80;99.90
40952;DHT22;26682;51.660;19.338;2024-01-27T12:02:39;2.80;99.90
40952;DHT22;26682;51.660;19.338;2024-01-27T12:05:22;2.80;99.90
40952;DHT22;26682;51.660;19.338;2024-01-27T12:08:07;2.80;99.90
40952;DHT22;26682;51.660;19.338;2024-01-27T12:10:51;2.70;99.90
40952;DHT22;26682;51.660;19.338;2024-01-27T12:13:34;2.70;99.90
40952;DHT22;26682;51.660;19.338;2024-01-27T12:16:17;2.70;99.90
40952;DHT22;26682;51.660;19.338;2024-01-27T12:19:00;2.60;99.90
40952;DHT22;26682;51.660;19.338;2024-01-27T12:21:48;2.60;99.90
40952;DHT22;26682;51.660;19.338;2024-01-27T12:24:30;2.50;99.90
40952;DHT22;26682;51.660;19.338;2024-01-27T12:27:16;2.60;99.90
40952;DHT22;26682;51.660;19.338;2024-01-27T12:30:01;2.60;99.90
40952;DHT22;26682;51.660;19.338;2024-01-27T12:32:44;2.60;99.90
40952;DHT22;26682;51.660;19.338;2024-01-27T12:35:27;2.60;99.90
40952;DHT22;26682;51.660;19.338;2024-01-27T12:38:12;2.60;99.90
40952;DHT22;26682;51.660;19.338;2024-01-27T12:40:55;2.60;99.90
40952;DHT22;26682;51.660;19.338;2024-01-27T12:43:38;2.60;99.90
40952;DHT22;26682;51.660;19.338;2024-01-27T12:46:21;2.60;99.90
40952;DHT22;26682;51.660;19.338;2024-01-27T12:49:04;2.60;99.90
40952;DHT22;26682;51.660;19.338;2024-01-27T12:51:47;2.60;99.90
40952;DHT22;26682;51.660;19.338;2024-01-27T12:54:31;2.60;99.90
40952;DHT22;26682;51.660;19.338;2024-01-27T12:57:13;2.70;99.90
40952;DHT22;26682;51.660;19.338;2024-01-27T12:59:56;2.70;99.90
40952;DHT22;26682;51.660;19.338;2024-01-27T13:02:39;2.60;99.90
40952;DHT22;26682;51.660;19.338;2024-01-27T13:05:22;2.60;99.90
40952;DHT22;26682;51.660;19.338;2024-01-27T13:08:05;2.60;99.90
40952;DHT22;26682;51.660;19.338;2024-01-27T13:10:48;2.70;99.90
40952;DHT22;26682;51.660;19.338;2024-01-27T13:13:30;2.70;99.90
40952;DHT22;26682;51.660;19.338;2024-01-27T13:16:13;2.70;99.90
40952;DHT22;26682;51.660;19.338;2024-01-27T13:18:56;2.70;99.90
40952;DHT22;26682;51.660;19.338;2024-01-27T13:21:39;2.70;99.90
40952;DHT22;26682;51.660;19.338;2024-01-27T13:24:22;2.70;99.90
40952;DHT22;26682;51.660;19.338;2024-01-27T13:27:07;2.70;99.90
40952;DHT22;26682;51.660;19.338;2024-01-27T13:29:50;2.70;99.90
40952;DHT22;26682;51.660;19.338;2024-01-27T13:32:33;2.70;99.90
40952;DHT22;26682;51.660;19.338;2024-01-27T13:35:15;2.60;99.90
40952;DHT22;26682;51.660;19.338;2024-01-27T13:37:58;2.60;99.90
40952;DHT22;26682;51.660;19.338;2024-01-27T13:40:41;2.60;99.90
40952;DHT22;26682;51.660;19.338;2024-01-27T13:43:24;2.60;99.90
40952;DHT22;26682;51.660;19.338;2024-01-27T13:46:07;2.60;99.90
40952;DHT22;26682;51.660;19.338;2024-01-27T13:48:50;2.60;99.90
40952;DHT22;26682;51.660;19.338;2024-01-27T13:51:33;2.60;99.90
40952;DHT22;26682;51.660;19.338;2024-01-27T13:54:16;2.60;99.90
40952;DHT22;26682;51.660;19.338;2024-01-27T13:56:58;2.60;99.90
40952;DHT22;26682;51.660;19.338;2024-01-27T13:59:41;2.60;99.90
40952;DHT22;26682;51.660;19.338;2024-01-27T14:02:24;2.60;99.90
40952;DHT22;26682;51.660;19.338;2024-01-27T14:05:08;2.60;99.90
40952;DHT22;26682;51.660;19.338;2024-01-27T14:07:51;2.60;99.90
40952;DHT22;26682;51.660;19.338;2024-01-27T14:10:34;2.50;99.90
40952;DHT22;26682;51.660;19.338;2024-01-27T14:13:17;2.60;99.90
40952;DHT22;26682;51.660;19.338;2024-01-27T14:16:00;2.50;99.90
40952;DHT22;26682;51.660;19.338;2024-01-27T14:18:42;2.50;99.90
40952;DHT22;26682;51.660;19.338;2024-01-27T14:21:25;2.50;99.90
40952;DHT22;26682;51.660;19.338;2024-01-27T14:24:09;2.50;99.90
40952;DHT22;26682;51.660;19.338;2024-01-27T14:26:52;2.50;99.90
40952;DHT22;26682;51.660;19.338;2024-01-27T14:29:35;2.40;99.90
40952;DHT22;26682;51.660;19.338;2024-01-27T14:32:19;2.40;99.90
40952;DHT22;26682;51.660;19.338;2024-01-27T14:35:01;2.40;99.90
40952;DHT22;26682;51.660;19.338;2024-01-27T14:37:48;2.30;99.90
40952;DHT22;26682;51.660;19.338;2024-01-27T14:40:30;2.30;99.90
40952;DHT22;26682;51.660;19.338;2024-01-27T14:43:14;2.30;99.90
40952;DHT22;26682;51.660;19.338;2024-01-27T14:45:59;2.20;99.90
40952;DHT22;26682;51.660;19.338;2024-01-27T14:48:42;2.20;99.90
40952;DHT22;26682;51.660;19.338;2024-01-27T14:51:25;2.20;99.90
40952;DHT22;26682;51.660;19.338;2024-01-27T14:54:08;2.20;99.90
40952;DHT22;26682;51.660;19.338;2024-01-27T14:56:50;2.30;99.90
40952;DHT22;26682;51.660;19.338;2024-01-27T14:59:33;2.30;99.90
40952;DHT22;26682;51.660;19.338;2024-01-27T15:02:15;2.30;99.90
40952;DHT22;26682;51.660;19.338;2024-01-27T15:05:04;2.30;99.90
40952;DHT22;26682;51.660;19.338;2024-01-27T15:07:46;2.30;99.90
40952;DHT22;26682;51.660;19.338;2024-01-27T15:10:29;2.40;99.90
40952;DHT22;26682;51.660;19.338;2024-01-27T15:13:11;2.40;99.90
40952;DHT22;26682;51.660;19.338;2024-01-27T15:15:54;2.40;99.90
40952;DHT22;26682;51.660;19.338;2024-01-27T15:18:37;2.40;99.90
40952;DHT22;26682;51.660;19.338;2024-01-27T15:21:23;2.50;99.90
40952;DHT22;26682;51.660;19.338;2024-01-27T15:24:07;2.50;99.90
40952;DHT22;26682;51.660;19.338;2024-01-27T15:26:50;2.50;99.90
40952;DHT22;26682;51.660;19.338;2024-01-27T15:29:46;2.60;99.90
40952;DHT22;26682;51.660;19.338;2024-01-27T15:32:28;2.60;99.90
40952;DHT22;26682;51.660;19.338;2024-01-27T15:35:11;2.60;99.90
40952;DHT22;26682;51.660;19.338;2024-01-27T15:37:54;2.70;99.90
40952;DHT22;26682;51.660;19.338;2024-01-27T15:40:37;2.70;99.90
40952;DHT22;26682;51.660;19.338;2024-01-27T15:43:19;2.70;99.90
40952;DHT22;26682;51.660;19.338;2024-01-27T15:46:02;2.70;99.90
40952;DHT22;26682;51.660;19.338;2024-01-27T15:48:47;2.80;99.90
40952;DHT22;26682;51.660;19.338;2024-01-27T15:51:30;2.80;99.90
40952;DHT22;26682;51.660;19.338;2024-01-27T15:54:12;2.90;99.90
40952;DHT22;26682;51.660;19.338;2024-01-27T15:56:55;2.90;99.90
40952;DHT22;26682;51.660;19.338;2024-01-27T15:59:37;3.00;99.90
40952;DHT22;26682;51.660;19.338;2024-01-27T16:02:20;3.00;99.90
40952;DHT22;26682;51.660;19.338;2024-01-27T16:05:03;3.00;99.90
40952;DHT22;26682;51.660;19.338;2024-01-27T16:07:46;3.10;99.90
40952;DHT22;26682;51.660;19.338;2024-01-27T16:10:28;3.10;99.90
40952;DHT22;26682;51.660;19.338;2024-01-27T16:13:11;3.10;99.90
40952;DHT22;26682;51.660;19.338;2024-01-27T16:15:54;3.10;99.90
40952;DHT22;26682;51.660;19.338;2024-01-27T16:18:36;3.10;99.90
40952;DHT22;26682;51.660;19.338;2024-01-27T16:21:19;3.00;99.90
40952;DHT22;26682;51.660;19.338;2024-01-27T16:24:02;3.00;99.90
40952;DHT22;26682;51.660;19.338;2024-01-27T16:26:44;3.00;99.90
40952;DHT22;26682;51.660;19.338;2024-01-27T16:29:27;2.90;99.90
40952;DHT22;26682;51.660;19.338;2024-01-27T16:32:09;2.90;99.90
40952;DHT22;26682;51.660;19.338;2024-01-27T16:34:52;2.80;99.90
40952;DHT22;26682;51.660;19.338;2024-01-27T16:37:35;2.70;99.90
40952;DHT22;26682;51.660;19.338;2024-01-27T16:40:18;2.70;99.90
40952;DHT22;26682;51.660;19.338;2024-01-27T16:43:02;2.60;99.90
40952;DHT22;26682;51.660;19.338;2024-01-27T16:45:44;2.50;99.90
40952;DHT22;26682;51.660;19.338;2024-01-27T16:48:27;2.50;99.90
40952;DHT22;26682;51.660;19.338;2024-01-27T16:51:09;2.50;99.90
40952;DHT22;26682;51.660;19.338;2024-01-27T16:53:52;2.40;99.90
40952;DHT22;26682;51.660;19.338;2024-01-27T16:56:37;2.40;99.90
40952;DHT22;26682;51.660;19.338;2024-01-27T16:59:19;2.30;99.90
40952;DHT22;26682;51.660;19.338;2024-01-27T17:02:02;2.30;99.90
40952;DHT22;26682;51.660;19.338;2024-01-27T17:04:44;2.20;99.90
40952;DHT22;26682;51.660;19.338;2024-01-27T17:07:30;2.20;99.90
40952;DHT22;26682;51.660;19.338;2024-01-27T17:10:14;2.20;99.90
40952;DHT22;26682;51.660;19.338;2024-01-27T17:12:57;2.20;99.90